Check out our new PWSWeather beta!
PWSweather.com
Personal Weather Stations
Station Observations
KNYLONGL2
Adirondack Acres, Long Lake, NY 12847

Adirondack AcresLong Lake, NY 12847

Lat: 43.979118, Lon: -74.43445500000001

Elevation: 1650

Station Type: Davis Vantage Pro2

http://www.adirondackacres.com/weather

High Low Average
Temperature 50.7°F10.4°F 15.7°F-9.1°F 32.4°F0.2°F
Dew Point 31.2°F-0.4°F 13.5°F-10.3°F 24.1°F-4.4°F
Winds 8.0 mph -12.9 mph - Calm Calm 2.0 mph 3.2 mph
Wind Gusts 18.0 mph29.0 mph -- 4.6 mph7.4 mph
Humidity 93% 40% 75%
Pressure 29.97 in1014.90 in 29.87 in1011.50 in -
Precipitation 0.24 in6.10 in - -
Hour Temp Dew Point Humidity Winds Wind Gusts Pressure Precip Precip Rate Daily Precip Total
12:00 AM 21.2°F-6.0°C 18.7°F-7.4°C 90% Calm Calm -- 29.97 in1014.9 mb 0.00 in0.0 mm 0.00 in0.0 mm 0.00 in0.0 mm
12:05 AM 21.1°F-6.1°C 18.6°F-7.4°C 90% Calm Calm -- 29.97 in1014.9 mb 0.00 in0.0 mm 0.00 in0.0 mm 0.00 in0.0 mm
12:10 AM 20.9°F-6.2°C 18.4°F-7.6°C 90% Calm Calm -- 29.97 in1014.9 mb 0.00 in0.0 mm 0.00 in0.0 mm 0.00 in0.0 mm
12:15 AM 20.7°F-6.3°C 18.2°F-7.7°C 90% Calm Calm -- 29.97 in1014.9 mb 0.00 in0.0 mm 0.00 in0.0 mm 0.00 in0.0 mm
12:20 AM 20.6°F-6.3°C 18.4°F-7.6°C 91% Calm Calm -- 29.97 in1014.9 mb 0.00 in0.0 mm 0.00 in0.0 mm 0.00 in0.0 mm
12:25 AM 20.5°F-6.4°C 18.3°F-7.6°C 91% Calm Calm -- 29.97 in1014.9 mb 0.00 in0.0 mm 0.00 in0.0 mm 0.00 in0.0 mm
12:30 AM 20.5°F-6.4°C 18.3°F-7.6°C 91% Calm Calm -- 29.96 in1014.6 mb 0.00 in0.0 mm 0.00 in0.0 mm 0.00 in0.0 mm
12:35 AM 20.5°F-6.4°C 18.3°F-7.6°C 91% Calm Calm -- 29.96 in1014.6 mb 0.00 in0.0 mm 0.00 in0.0 mm 0.00 in0.0 mm
12:40 AM 20.6°F-6.3°C 18.6°F-7.4°C 92% Calm Calm -- 29.96 in1014.6 mb 0.00 in0.0 mm 0.00 in0.0 mm 0.00 in0.0 mm
12:45 AM 20.7°F-6.3°C 18.7°F-7.4°C 92% Calm Calm -- 29.96 in1014.6 mb 0.00 in0.0 mm 0.00 in0.0 mm 0.00 in0.0 mm
12:50 AM 20.9°F-6.2°C 18.9°F-7.3°C 92% Calm Calm -- 29.96 in1014.6 mb 0.00 in0.0 mm 0.00 in0.0 mm 0.00 in0.0 mm
12:55 AM 20.9°F-6.2°C 18.9°F-7.3°C 92% Calm Calm -- 29.96 in1014.6 mb 0.00 in0.0 mm 0.00 in0.0 mm 0.00 in0.0 mm
01:00 AM 20.9°F-6.2°C 18.9°F-7.3°C 92% Calm Calm -- 29.96 in1014.6 mb 0.00 in0.0 mm 0.00 in0.0 mm 0.00 in0.0 mm
01:05 AM 20.9°F-6.2°C 18.9°F-7.3°C 92% Calm Calm -- 29.96 in1014.6 mb 0.00 in0.0 mm 0.00 in0.0 mm 0.00 in0.0 mm
01:10 AM 21.0°F-6.1°C 19.0°F-7.2°C 92% Calm Calm -- 29.96 in1014.6 mb 0.00 in0.0 mm 0.00 in0.0 mm 0.00 in0.0 mm
01:15 AM 21.0°F-6.1°C 19.0°F-7.2°C 92% Calm Calm -- 29.95 in1014.2 mb 0.00 in0.0 mm 0.00 in0.0 mm 0.00 in0.0 mm
01:20 AM 20.8°F-6.2°C 18.6°F-7.4°C 91% Calm Calm -- 29.95 in1014.2 mb 0.00 in0.0 mm 0.00 in0.0 mm 0.00 in0.0 mm
01:25 AM 20.5°F-6.4°C 18.3°F-7.6°C 91% Calm Calm -- 29.95 in1014.2 mb 0.00 in0.0 mm 0.00 in0.0 mm 0.00 in0.0 mm
01:30 AM 20.3°F-6.5°C 18.1°F-7.7°C 91% Calm Calm -- 29.95 in1014.2 mb 0.00 in0.0 mm 0.00 in0.0 mm 0.00 in0.0 mm
01:35 AM 20.2°F-6.6°C 18.2°F-7.7°C 92% Calm Calm -- 29.95 in1014.2 mb 0.00 in0.0 mm 0.00 in0.0 mm 0.00 in0.0 mm
01:40 AM 20.2°F-6.6°C 18.2°F-7.7°C 92% Calm Calm -- 29.95 in1014.2 mb 0.00 in0.0 mm 0.00 in0.0 mm 0.00 in0.0 mm
01:45 AM 20.3°F-6.5°C 18.3°F-7.6°C 92% Calm Calm -- 29.95 in1014.2 mb 0.00 in0.0 mm 0.00 in0.0 mm 0.00 in0.0 mm
01:50 AM 20.2°F-6.6°C 18.0°F-7.8°C 91% Calm Calm -- 29.94 in1013.9 mb 0.00 in0.0 mm 0.00 in0.0 mm 0.00 in0.0 mm
01:55 AM 20.0°F-6.7°C 17.8°F-7.9°C 91% Calm Calm -- 29.95 in1014.2 mb 0.00 in0.0 mm 0.00 in0.0 mm 0.00 in0.0 mm
02:00 AM 20.0°F-6.7°C 18.1°F-7.7°C 92% Calm Calm -- 29.95 in1014.2 mb 0.00 in0.0 mm 0.00 in0.0 mm 0.00 in0.0 mm
02:05 AM 20.0°F-6.7°C 18.1°F-7.7°C 92% Calm Calm -- 29.95 in1014.2 mb 0.00 in0.0 mm 0.00 in0.0 mm 0.00 in0.0 mm
02:10 AM 19.8°F-6.8°C 17.9°F-7.8°C 92% Calm Calm -- 29.95 in1014.2 mb 0.00 in0.0 mm 0.00 in0.0 mm 0.00 in0.0 mm
02:15 AM 19.6°F-6.9°C 17.4°F-8.1°C 91% Calm Calm -- 29.95 in1014.2 mb 0.00 in0.0 mm 0.00 in0.0 mm 0.00 in0.0 mm
02:20 AM 19.4°F-7.0°C 17.5°F-8.1°C 92% Calm Calm -- 29.95 in1014.2 mb 0.00 in0.0 mm 0.00 in0.0 mm 0.00 in0.0 mm
02:25 AM 19.4°F-7.0°C 17.5°F-8.1°C 92% Calm Calm -- 29.94 in1013.9 mb 0.00 in0.0 mm 0.00 in0.0 mm 0.00 in0.0 mm
02:30 AM 19.3°F-7.1°C 17.4°F-8.1°C 92% Calm Calm -- 29.94 in1013.9 mb 0.00 in0.0 mm 0.00 in0.0 mm 0.00 in0.0 mm
02:35 AM 19.2°F-7.1°C 17.3°F-8.2°C 92% Calm Calm -- 29.94 in1013.9 mb 0.00 in0.0 mm 0.00 in0.0 mm 0.00 in0.0 mm
02:40 AM 18.9°F-7.3°C 17.0°F-8.3°C 92% Calm Calm -- 29.95 in1014.2 mb 0.00 in0.0 mm 0.00 in0.0 mm 0.00 in0.0 mm
02:45 AM 18.7°F-7.4°C 16.5°F-8.6°C 91% Calm Calm -- 29.95 in1014.2 mb 0.00 in0.0 mm 0.00 in0.0 mm 0.00 in0.0 mm
02:50 AM 18.5°F-7.5°C 16.6°F-8.6°C 92% Calm Calm -- 29.94 in1013.9 mb 0.00 in0.0 mm 0.00 in0.0 mm 0.00 in0.0 mm
02:55 AM 18.4°F-7.6°C 16.5°F-8.6°C 92% Calm Calm -- 29.95 in1014.2 mb 0.00 in0.0 mm 0.00 in0.0 mm 0.00 in0.0 mm
03:00 AM 18.4°F-7.6°C 16.5°F-8.6°C 92% Calm Calm -- 29.94 in1013.9 mb 0.00 in0.0 mm 0.00 in0.0 mm 0.00 in0.0 mm
03:05 AM 18.4°F-7.6°C 16.7°F-8.5°C 93% Calm Calm -- 29.95 in1014.2 mb 0.00 in0.0 mm 0.00 in0.0 mm 0.00 in0.0 mm
03:10 AM 18.5°F-7.5°C 16.6°F-8.6°C 92% Calm Calm -- 29.94 in1013.9 mb 0.00 in0.0 mm 0.00 in0.0 mm 0.00 in0.0 mm
03:15 AM 18.4°F-7.6°C 16.5°F-8.6°C 92% Calm Calm -- 29.94 in1013.9 mb 0.00 in0.0 mm 0.00 in0.0 mm 0.00 in0.0 mm
03:20 AM 18.2°F-7.7°C 16.3°F-8.7°C 92% Calm Calm -- 29.94 in1013.9 mb 0.00 in0.0 mm 0.00 in0.0 mm 0.00 in0.0 mm
03:25 AM 18.1°F-7.7°C 16.2°F-8.8°C 92% Calm Calm -- 29.94 in1013.9 mb 0.00 in0.0 mm 0.00 in0.0 mm 0.00 in0.0 mm
03:30 AM 18.0°F-7.8°C 16.1°F-8.8°C 92% Calm Calm -- 29.94 in1013.9 mb 0.00 in0.0 mm 0.00 in0.0 mm 0.00 in0.0 mm
03:35 AM 17.8°F-7.9°C 15.9°F-8.9°C 92% Calm Calm -- 29.94 in1013.9 mb 0.00 in0.0 mm 0.00 in0.0 mm 0.00 in0.0 mm
03:40 AM 17.7°F-7.9°C 15.8°F-9.0°C 92% Calm Calm -- 29.94 in1013.9 mb 0.00 in0.0 mm 0.00 in0.0 mm 0.00 in0.0 mm
03:45 AM 17.7°F-7.9°C 15.8°F-9.0°C 92% Calm Calm -- 29.94 in1013.9 mb 0.00 in0.0 mm 0.00 in0.0 mm 0.00 in0.0 mm
03:50 AM 17.8°F-7.9°C 16.1°F-8.8°C 93% Calm Calm -- 29.94 in1013.9 mb 0.00 in0.0 mm 0.00 in0.0 mm 0.00 in0.0 mm
03:55 AM 17.9°F-7.8°C 16.2°F-8.8°C 93% Calm Calm -- 29.94 in1013.9 mb 0.00 in0.0 mm 0.00 in0.0 mm 0.00 in0.0 mm
04:00 AM 18.1°F-7.7°C 16.4°F-8.7°C 93% Calm Calm -- 29.94 in1013.9 mb 0.00 in0.0 mm 0.00 in0.0 mm 0.00 in0.0 mm
04:05 AM 18.2°F-7.7°C 16.5°F-8.6°C 93% Calm Calm -- 29.94 in1013.9 mb 0.00 in0.0 mm 0.00 in0.0 mm 0.00 in0.0 mm
04:10 AM 18.3°F-7.6°C 16.6°F-8.6°C 93% Calm Calm -- 29.94 in1013.9 mb 0.00 in0.0 mm 0.00 in0.0 mm 0.00 in0.0 mm
04:15 AM 18.4°F-7.6°C 16.7°F-8.5°C 93% Calm Calm -- 29.94 in1013.9 mb 0.00 in0.0 mm 0.00 in0.0 mm 0.00 in0.0 mm
04:20 AM 18.4°F-7.6°C 16.7°F-8.5°C 93% Calm Calm -- 29.94 in1013.9 mb 0.00 in0.0 mm 0.00 in0.0 mm 0.00 in0.0 mm
04:25 AM 18.3°F-7.6°C 16.6°F-8.6°C 93% Calm Calm -- 29.93 in1013.5 mb 0.00 in0.0 mm 0.00 in0.0 mm 0.00 in0.0 mm
04:30 AM 18.2°F-7.7°C 16.3°F-8.7°C 92% Calm Calm -- 29.93 in1013.5 mb 0.00 in0.0 mm 0.00 in0.0 mm 0.00 in0.0 mm
04:35 AM 18.0°F-7.8°C 16.1°F-8.8°C 92% Calm Calm -- 29.93 in1013.5 mb 0.00 in0.0 mm 0.00 in0.0 mm 0.00 in0.0 mm
04:40 AM 17.9°F-7.8°C 16.0°F-8.9°C 92% Calm Calm -- 29.93 in1013.5 mb 0.00 in0.0 mm 0.00 in0.0 mm 0.00 in0.0 mm
04:45 AM 17.8°F-7.9°C 15.9°F-8.9°C 92% Calm Calm -- 29.93 in1013.5 mb 0.00 in0.0 mm 0.00 in0.0 mm 0.00 in0.0 mm
04:50 AM 17.7°F-7.9°C 15.8°F-9.0°C 92% Calm Calm -- 29.93 in1013.5 mb 0.00 in0.0 mm 0.00 in0.0 mm 0.00 in0.0 mm
04:55 AM 17.5°F-8.1°C 15.6°F-9.1°C 92% Calm Calm -- 29.93 in1013.5 mb 0.00 in0.0 mm 0.00 in0.0 mm 0.00 in0.0 mm
05:00 AM 17.4°F-8.1°C 15.5°F-9.2°C 92% Calm Calm -- 29.93 in1013.5 mb 0.00 in0.0 mm 0.00 in0.0 mm 0.00 in0.0 mm
05:05 AM 17.3°F-8.2°C 15.4°F-9.2°C 92% Calm Calm -- 29.93 in1013.5 mb 0.00 in0.0 mm 0.00 in0.0 mm 0.00 in0.0 mm
05:10 AM 17.3°F-8.2°C 15.4°F-9.2°C 92% Calm Calm -- 29.93 in1013.5 mb 0.00 in0.0 mm 0.00 in0.0 mm 0.00 in0.0 mm
05:15 AM 17.2°F-8.2°C 15.3°F-9.3°C 92% Calm Calm -- 29.93 in1013.5 mb 0.00 in0.0 mm 0.00 in0.0 mm 0.00 in0.0 mm
05:20 AM 17.2°F-8.2°C 15.3°F-9.3°C 92% Calm Calm -- 29.93 in1013.5 mb 0.00 in0.0 mm 0.00 in0.0 mm 0.00 in0.0 mm
05:25 AM 17.2°F-8.2°C 15.3°F-9.3°C 92% Calm Calm -- 29.93 in1013.5 mb 0.00 in0.0 mm 0.00 in0.0 mm 0.00 in0.0 mm
05:30 AM 17.2°F-8.2°C 15.3°F-9.3°C 92% Calm Calm -- 29.93 in1013.5 mb 0.00 in0.0 mm 0.00 in0.0 mm 0.00 in0.0 mm
05:35 AM 17.0°F-8.3°C 15.1°F-9.4°C 92% Calm Calm -- 29.93 in1013.5 mb 0.00 in0.0 mm 0.00 in0.0 mm 0.00 in0.0 mm
05:40 AM 16.9°F-8.4°C 15.0°F-9.4°C 92% Calm Calm -- 29.93 in1013.5 mb 0.00 in0.0 mm 0.00 in0.0 mm 0.00 in0.0 mm
05:45 AM 16.7°F-8.5°C 14.8°F-9.6°C 92% Calm Calm -- 29.93 in1013.5 mb 0.00 in0.0 mm 0.00 in0.0 mm 0.00 in0.0 mm
05:50 AM 16.6°F-8.6°C 14.7°F-9.6°C 92% Calm Calm -- 29.93 in1013.5 mb 0.00 in0.0 mm 0.00 in0.0 mm 0.00 in0.0 mm
05:55 AM 16.5°F-8.6°C 14.6°F-9.7°C 92% Calm Calm -- 29.93 in1013.5 mb 0.00 in0.0 mm 0.00 in0.0 mm 0.00 in0.0 mm
06:00 AM 16.4°F-8.7°C 14.5°F-9.7°C 92% Calm Calm -- 29.93 in1013.5 mb 0.00 in0.0 mm 0.00 in0.0 mm 0.00 in0.0 mm
06:05 AM 16.4°F-8.7°C 14.5°F-9.7°C 92% Calm Calm -- 29.93 in1013.5 mb 0.00 in0.0 mm 0.00 in0.0 mm 0.00 in0.0 mm
06:10 AM 16.4°F-8.7°C 14.5°F-9.7°C 92% Calm Calm -- 29.94 in1013.9 mb 0.00 in0.0 mm 0.00 in0.0 mm 0.00 in0.0 mm
06:15 AM 16.5°F-8.6°C 14.8°F-9.6°C 93% Calm Calm -- 29.94 in1013.9 mb 0.00 in0.0 mm 0.00 in0.0 mm 0.00 in0.0 mm
06:20 AM 16.6°F-8.6°C 14.9°F-9.5°C 93% Calm Calm -- 29.94 in1013.9 mb 0.00 in0.0 mm 0.00 in0.0 mm 0.00 in0.0 mm
06:25 AM 16.5°F-8.6°C 14.6°F-9.7°C 92% Calm Calm -- 29.94 in1013.9 mb 0.00 in0.0 mm 0.00 in0.0 mm 0.00 in0.0 mm
06:30 AM 16.3°F-8.7°C 14.4°F-9.8°C 92% Calm Calm -- 29.94 in1013.9 mb 0.00 in0.0 mm 0.00 in0.0 mm 0.00 in0.0 mm
06:35 AM 16.1°F-8.8°C 13.9°F-10.1°C 91% Calm Calm -- 29.94 in1013.9 mb 0.00 in0.0 mm 0.00 in0.0 mm 0.00 in0.0 mm
06:40 AM 15.9°F-8.9°C 13.7°F-10.2°C 91% Calm Calm -- 29.95 in1014.2 mb 0.00 in0.0 mm 0.00 in0.0 mm 0.00 in0.0 mm
06:45 AM 15.7°F-9.1°C 13.5°F-10.3°C 91% Calm Calm -- 29.95 in1014.2 mb 0.00 in0.0 mm 0.00 in0.0 mm 0.00 in0.0 mm
06:50 AM 15.7°F-9.1°C 13.8°F-10.1°C 92% Calm Calm -- 29.95 in1014.2 mb 0.00 in0.0 mm 0.00 in0.0 mm 0.00 in0.0 mm
06:55 AM 15.7°F-9.1°C 13.8°F-10.1°C 92% Calm Calm -- 29.95 in1014.2 mb 0.00 in0.0 mm 0.00 in0.0 mm 0.00 in0.0 mm
07:00 AM 15.9°F-8.9°C 14.0°F-10.0°C 92% Calm Calm -- 29.95 in1014.2 mb 0.00 in0.0 mm 0.00 in0.0 mm 0.00 in0.0 mm
07:05 AM 16.3°F-8.7°C 14.6°F-9.7°C 93% Calm Calm -- 29.95 in1014.2 mb 0.00 in0.0 mm 0.00 in0.0 mm 0.00 in0.0 mm
07:10 AM 16.6°F-8.6°C 14.9°F-9.5°C 93% Calm Calm -- 29.95 in1014.2 mb 0.00 in0.0 mm 0.00 in0.0 mm 0.00 in0.0 mm
07:15 AM 16.9°F-8.4°C 15.2°F-9.3°C 93% Calm Calm -- 29.95 in1014.2 mb 0.00 in0.0 mm 0.00 in0.0 mm 0.00 in0.0 mm
07:20 AM 17.2°F-8.2°C 15.5°F-9.2°C 93% Calm Calm -- 29.95 in1014.2 mb 0.00 in0.0 mm 0.00 in0.0 mm 0.00 in0.0 mm
07:25 AM 17.4°F-8.1°C 15.7°F-9.1°C 93% Calm Calm -- 29.95 in1014.2 mb 0.00 in0.0 mm 0.00 in0.0 mm 0.00 in0.0 mm
07:30 AM 17.6°F-8.0°C 15.9°F-8.9°C 93% Calm Calm -- 29.95 in1014.2 mb 0.00 in0.0 mm 0.00 in0.0 mm 0.00 in0.0 mm
07:35 AM 17.7°F-7.9°C 16.0°F-8.9°C 93% Calm Calm -- 29.95 in1014.2 mb 0.00 in0.0 mm 0.00 in0.0 mm 0.00 in0.0 mm
07:40 AM 17.8°F-7.9°C 16.1°F-8.8°C 93% Calm Calm -- 29.95 in1014.2 mb 0.00 in0.0 mm 0.00 in0.0 mm 0.00 in0.0 mm
07:45 AM 18.0°F-7.8°C 16.3°F-8.7°C 93% Calm Calm -- 29.95 in1014.2 mb 0.00 in0.0 mm 0.00 in0.0 mm 0.00 in0.0 mm
07:50 AM 18.2°F-7.7°C 16.5°F-8.6°C 93% Calm Calm -- 29.95 in1014.2 mb 0.00 in0.0 mm 0.00 in0.0 mm 0.00 in0.0 mm
07:55 AM 18.5°F-7.5°C 16.8°F-8.4°C 93% Calm Calm -- 29.95 in1014.2 mb 0.00 in0.0 mm 0.00 in0.0 mm 0.00 in0.0 mm
08:00 AM 18.8°F-7.3°C 17.1°F-8.3°C 93% Calm Calm -- 29.95 in1014.2 mb 0.00 in0.0 mm 0.00 in0.0 mm 0.00 in0.0 mm
08:05 AM 19.1°F-7.2°C 17.4°F-8.1°C 93% Calm Calm -- 29.96 in1014.6 mb 0.00 in0.0 mm 0.00 in0.0 mm 0.00 in0.0 mm
08:10 AM 19.4°F-7.0°C 17.7°F-7.9°C 93% Calm Calm -- 29.96 in1014.6 mb 0.00 in0.0 mm 0.00 in0.0 mm 0.00 in0.0 mm
08:15 AM 19.6°F-6.9°C 17.9°F-7.8°C 93% Calm Calm -- 29.95 in1014.2 mb 0.00 in0.0 mm 0.00 in0.0 mm 0.00 in0.0 mm
08:20 AM 19.9°F-6.7°C 18.2°F-7.7°C 93% Calm Calm -- 29.95 in1014.2 mb 0.00 in0.0 mm 0.00 in0.0 mm 0.00 in0.0 mm
08:25 AM 20.2°F-6.6°C 18.5°F-7.5°C 93% Calm Calm -- 29.95 in1014.2 mb 0.00 in0.0 mm 0.00 in0.0 mm 0.00 in0.0 mm
08:30 AM 20.5°F-6.4°C 18.8°F-7.3°C 93% Calm Calm -- 29.95 in1014.2 mb 0.00 in0.0 mm 0.00 in0.0 mm 0.00 in0.0 mm
08:35 AM 21.1°F-6.1°C 19.4°F-7.0°C 93% 1.0 mph WSW1.6 kmh WSW 3.0 mph4.8 kmh 29.95 in1014.2 mb 0.00 in0.0 mm 0.00 in0.0 mm 0.00 in0.0 mm
08:40 AM 22.0°F-5.6°C 20.3°F-6.5°C 93% 1.0 mph WNW1.6 kmh WNW 3.0 mph4.8 kmh 29.95 in1014.2 mb 0.00 in0.0 mm 0.00 in0.0 mm 0.00 in0.0 mm
08:45 AM 22.7°F-5.2°C 21.0°F-6.1°C 93% 1.0 mph N1.6 kmh N 3.0 mph4.8 kmh 29.95 in1014.2 mb 0.00 in0.0 mm 0.00 in0.0 mm 0.00 in0.0 mm
08:50 AM 23.4°F-4.8°C 21.4°F-5.9°C 92% Calm Calm 3.0 mph4.8 kmh 29.95 in1014.2 mb 0.00 in0.0 mm 0.00 in0.0 mm 0.00 in0.0 mm
08:55 AM 24.0°F-4.4°C 22.0°F-5.6°C 92% Calm Calm 2.0 mph3.2 kmh 29.95 in1014.2 mb 0.00 in0.0 mm 0.00 in0.0 mm 0.00 in0.0 mm
09:00 AM 24.9°F-3.9°C 22.4°F-5.3°C 90% Calm Calm 2.0 mph3.2 kmh 29.96 in1014.6 mb 0.00 in0.0 mm 0.00 in0.0 mm 0.00 in0.0 mm
09:05 AM 25.8°F-3.4°C 23.0°F-5.0°C 89% Calm Calm -- 29.96 in1014.6 mb 0.00 in0.0 mm 0.00 in0.0 mm 0.00 in0.0 mm
09:10 AM 29.2°F-1.6°C 24.7°F-4.1°C 83% 1.0 mph S1.6 kmh S 9.0 mph14.5 kmh 29.95 in1014.2 mb 0.00 in0.0 mm 0.00 in0.0 mm 0.00 in0.0 mm
09:15 AM 32.2°F0.1°C 24.8°F-4.0°C 74% 2.0 mph S3.2 kmh S 9.0 mph14.5 kmh 29.95 in1014.2 mb 0.00 in0.0 mm 0.00 in0.0 mm 0.00 in0.0 mm
09:20 AM 34.2°F1.2°C 25.1°F-3.8°C 69% 2.0 mph S3.2 kmh S 7.0 mph11.3 kmh 29.95 in1014.2 mb 0.00 in0.0 mm 0.00 in0.0 mm 0.00 in0.0 mm
09:25 AM 36.2°F2.3°C 25.2°F-3.8°C 64% 3.0 mph SSW4.8 kmh SSW 7.0 mph11.3 kmh 29.95 in1014.2 mb 0.00 in0.0 mm 0.00 in0.0 mm 0.00 in0.0 mm
09:30 AM 37.4°F3.0°C 24.8°F-4.0°C 60% 4.0 mph SSW6.4 kmh SSW 10.0 mph16.1 kmh 29.96 in1014.6 mb 0.00 in0.0 mm 0.00 in0.0 mm 0.00 in0.0 mm
09:35 AM 38.2°F3.4°C 25.1°F-3.8°C 59% 4.0 mph S6.4 kmh S 10.0 mph16.1 kmh 29.95 in1014.2 mb 0.00 in0.0 mm 0.00 in0.0 mm 0.00 in0.0 mm
09:40 AM 38.8°F3.8°C 25.3°F-3.7°C 58% 4.0 mph S6.4 kmh S 10.0 mph16.1 kmh 29.95 in1014.2 mb 0.00 in0.0 mm 0.00 in0.0 mm 0.00 in0.0 mm
09:45 AM 39.4°F4.1°C 25.8°F-3.4°C 58% 4.0 mph S6.4 kmh S 10.0 mph16.1 kmh 29.95 in1014.2 mb 0.00 in0.0 mm 0.00 in0.0 mm 0.00 in0.0 mm
09:50 AM 40.0°F4.4°C 26.4°F-3.1°C 58% 3.0 mph SSW4.8 kmh SSW 8.0 mph12.9 kmh 29.95 in1014.2 mb 0.00 in0.0 mm 0.00 in0.0 mm 0.00 in0.0 mm
09:55 AM 40.8°F4.9°C 26.3°F-3.2°C 56% 4.0 mph SSW6.4 kmh SSW 9.0 mph14.5 kmh 29.95 in1014.2 mb 0.00 in0.0 mm 0.00 in0.0 mm 0.00 in0.0 mm
10:00 AM 41.6°F5.3°C 26.6°F-3.0°C 55% 5.0 mph S8.0 kmh S 9.0 mph14.5 kmh 29.95 in1014.2 mb 0.00 in0.0 mm 0.00 in0.0 mm 0.00 in0.0 mm
10:05 AM 42.2°F5.7°C 27.2°F-2.7°C 55% 6.0 mph S9.7 kmh S 11.0 mph17.7 kmh 29.94 in1013.9 mb 0.00 in0.0 mm 0.00 in0.0 mm 0.00 in0.0 mm
10:10 AM 42.5°F5.8°C 27.9°F-2.3°C 56% 6.0 mph S9.7 kmh S 11.0 mph17.7 kmh 29.94 in1013.9 mb 0.00 in0.0 mm 0.00 in0.0 mm 0.00 in0.0 mm
10:15 AM 42.7°F5.9°C 28.1°F-2.2°C 56% 6.0 mph SSW9.7 kmh SSW 11.0 mph17.7 kmh 29.94 in1013.9 mb 0.00 in0.0 mm 0.00 in0.0 mm 0.00 in0.0 mm
10:20 AM 42.8°F6.0°C 28.6°F-1.9°C 57% 5.0 mph SSW8.0 kmh SSW 11.0 mph17.7 kmh 29.93 in1013.5 mb 0.00 in0.0 mm 0.00 in0.0 mm 0.00 in0.0 mm
10:25 AM 43.1°F6.2°C 28.5°F-1.9°C 56% 4.0 mph SSW6.4 kmh SSW 13.0 mph20.9 kmh 29.93 in1013.5 mb 0.00 in0.0 mm 0.00 in0.0 mm 0.00 in0.0 mm
10:30 AM 43.5°F6.4°C 28.8°F-1.8°C 56% 5.0 mph S8.0 kmh S 13.0 mph20.9 kmh 29.93 in1013.5 mb 0.00 in0.0 mm 0.00 in0.0 mm 0.00 in0.0 mm
10:35 AM 43.9°F6.6°C 29.2°F-1.6°C 56% 6.0 mph SSW9.7 kmh SSW 13.0 mph20.9 kmh 29.93 in1013.5 mb 0.00 in0.0 mm 0.00 in0.0 mm 0.00 in0.0 mm
10:40 AM 44.3°F6.8°C 30.0°F-1.1°C 57% 6.0 mph SSW9.7 kmh SSW 13.0 mph20.9 kmh 29.93 in1013.5 mb 0.00 in0.0 mm 0.00 in0.0 mm 0.00 in0.0 mm
10:45 AM 44.6°F7.0°C 29.9°F-1.2°C 56% 7.0 mph SSW11.3 kmh SSW 13.0 mph20.9 kmh 29.93 in1013.5 mb 0.00 in0.0 mm 0.00 in0.0 mm 0.00 in0.0 mm
10:50 AM 45.1°F7.3°C 30.3°F-0.9°C 56% 6.0 mph S9.7 kmh S 13.0 mph20.9 kmh 29.93 in1013.5 mb 0.00 in0.0 mm 0.00 in0.0 mm 0.00 in0.0 mm
10:55 AM 45.4°F7.4°C 30.2°F-1.0°C 55% 6.0 mph SSW9.7 kmh SSW 12.0 mph19.3 kmh 29.93 in1013.5 mb 0.00 in0.0 mm 0.00 in0.0 mm 0.00 in0.0 mm
11:00 AM 45.6°F7.6°C 29.9°F-1.2°C 54% 6.0 mph SSW9.7 kmh SSW 14.0 mph22.5 kmh 29.93 in1013.5 mb 0.00 in0.0 mm 0.00 in0.0 mm 0.00 in0.0 mm
11:05 AM 45.7°F7.6°C 29.5°F-1.4°C 53% 6.0 mph S9.7 kmh S 17.0 mph27.4 kmh 29.92 in1013.2 mb 0.01 in0.3 mm 0.12 in3.0 mm 0.01 in0.3 mm
11:10 AM 45.7°F7.6°C 29.1°F-1.6°C 52% 8.0 mph S12.9 kmh S 17.0 mph27.4 kmh 29.92 in1013.2 mb 0.01 in0.3 mm 0.00 in0.0 mm 0.01 in0.3 mm
11:15 AM 45.8°F7.7°C 29.6°F-1.3°C 53% 8.0 mph S12.9 kmh S 14.0 mph22.5 kmh 29.92 in1013.2 mb 0.01 in0.3 mm 0.00 in0.0 mm 0.01 in0.3 mm
11:20 AM 45.8°F7.7°C 29.2°F-1.6°C 52% 6.0 mph S9.7 kmh S 14.0 mph22.5 kmh 29.92 in1013.2 mb 0.01 in0.3 mm 0.00 in0.0 mm 0.01 in0.3 mm
11:25 AM 46.1°F7.8°C 29.4°F-1.4°C 52% 6.0 mph S9.7 kmh S 13.0 mph20.9 kmh 29.92 in1013.2 mb 0.01 in0.3 mm 0.00 in0.0 mm 0.01 in0.3 mm
11:30 AM 46.2°F7.9°C 29.1°F-1.6°C 51% 7.0 mph SSW11.3 kmh SSW 15.0 mph24.1 kmh 29.92 in1013.2 mb 0.01 in0.3 mm 0.00 in0.0 mm 0.01 in0.3 mm
11:35 AM 46.4°F8.0°C 29.2°F-1.6°C 51% 7.0 mph SSW11.3 kmh SSW 15.0 mph24.1 kmh 29.91 in1012.9 mb 0.01 in0.3 mm 0.00 in0.0 mm 0.01 in0.3 mm
11:40 AM 46.4°F8.0°C 28.8°F-1.8°C 50% 7.0 mph SSW11.3 kmh SSW 13.0 mph20.9 kmh 29.92 in1013.2 mb 0.01 in0.3 mm 0.00 in0.0 mm 0.01 in0.3 mm
11:45 AM 46.5°F8.1°C 28.8°F-1.8°C 50% 7.0 mph SSW11.3 kmh SSW 16.0 mph25.7 kmh 29.91 in1012.9 mb 0.01 in0.3 mm 0.00 in0.0 mm 0.01 in0.3 mm
11:50 AM 46.5°F8.1°C 28.8°F-1.8°C 50% 6.0 mph SSW9.7 kmh SSW 16.0 mph25.7 kmh 29.91 in1012.9 mb 0.01 in0.3 mm 0.00 in0.0 mm 0.01 in0.3 mm
11:55 AM 46.7°F8.2°C 28.5°F-1.9°C 49% 6.0 mph S9.7 kmh S 16.0 mph25.7 kmh 29.91 in1012.9 mb 0.01 in0.3 mm 0.00 in0.0 mm 0.01 in0.3 mm
12:00 PM 46.6°F8.1°C 27.9°F-2.3°C 48% 6.0 mph S9.7 kmh S 16.0 mph25.7 kmh 29.91 in1012.9 mb 0.01 in0.3 mm 0.00 in0.0 mm 0.01 in0.3 mm
12:05 PM 46.8°F8.2°C 27.6°F-2.4°C 47% 8.0 mph S12.9 kmh S 15.0 mph24.1 kmh 29.91 in1012.9 mb 0.00 in0.0 mm 0.00 in0.0 mm 0.01 in0.3 mm
12:10 PM 47.2°F8.4°C 28.0°F-2.2°C 47% 7.0 mph SSW11.3 kmh SSW 15.0 mph24.1 kmh 29.91 in1012.9 mb 0.00 in0.0 mm 0.00 in0.0 mm 0.01 in0.3 mm
12:15 PM 47.8°F8.8°C 28.0°F-2.2°C 46% 5.0 mph SSW8.0 kmh SSW 11.0 mph17.7 kmh 29.91 in1012.9 mb 0.01 in0.3 mm 0.12 in3.0 mm 0.02 in0.5 mm
12:20 PM 47.9°F8.8°C 27.6°F-2.4°C 45% 6.0 mph SSW9.7 kmh SSW 11.0 mph17.7 kmh 29.90 in1012.5 mb 0.01 in0.3 mm 0.00 in0.0 mm 0.02 in0.5 mm
12:25 PM 48.1°F8.9°C 28.3°F-2.1°C 46% 6.0 mph SSW9.7 kmh SSW 11.0 mph17.7 kmh 29.90 in1012.5 mb 0.01 in0.3 mm 0.00 in0.0 mm 0.02 in0.5 mm
12:30 PM 48.3°F9.1°C 27.9°F-2.3°C 45% 6.0 mph SSW9.7 kmh SSW 11.0 mph17.7 kmh 29.90 in1012.5 mb 0.01 in0.3 mm 0.00 in0.0 mm 0.02 in0.5 mm
12:35 PM 48.5°F9.2°C 27.6°F-2.4°C 44% 7.0 mph SSW11.3 kmh SSW 11.0 mph17.7 kmh 29.90 in1012.5 mb 0.01 in0.3 mm 0.00 in0.0 mm 0.02 in0.5 mm
12:40 PM 48.5°F9.2°C 27.6°F-2.4°C 44% 6.0 mph SSW9.7 kmh SSW 14.0 mph22.5 kmh 29.90 in1012.5 mb 0.01 in0.3 mm 0.00 in0.0 mm 0.02 in0.5 mm
12:45 PM 48.7°F9.3°C 27.2°F-2.7°C 43% 6.0 mph SSW9.7 kmh SSW 14.0 mph22.5 kmh 29.89 in1012.2 mb 0.01 in0.3 mm 0.00 in0.0 mm 0.02 in0.5 mm
12:50 PM 48.9°F9.4°C 26.8°F-2.9°C 42% 6.0 mph SSW9.7 kmh SSW 14.0 mph22.5 kmh 29.89 in1012.2 mb 0.01 in0.3 mm 0.00 in0.0 mm 0.02 in0.5 mm
12:55 PM 49.0°F9.4°C 26.3°F-3.2°C 41% 6.0 mph SSW9.7 kmh SSW 14.0 mph22.5 kmh 29.89 in1012.2 mb 0.01 in0.3 mm 0.00 in0.0 mm 0.02 in0.5 mm
01:00 PM 49.1°F9.5°C 26.4°F-3.1°C 41% 6.0 mph SSW9.7 kmh SSW 18.0 mph29.0 kmh 29.89 in1012.2 mb 0.01 in0.3 mm 0.00 in0.0 mm 0.02 in0.5 mm
01:05 PM 49.4°F9.7°C 26.7°F-2.9°C 41% 6.0 mph SSW9.7 kmh SSW 18.0 mph29.0 kmh 29.89 in1012.2 mb 0.01 in0.3 mm 0.00 in0.0 mm 0.02 in0.5 mm
01:10 PM 49.3°F9.6°C 26.6°F-3.0°C 41% 6.0 mph SSW9.7 kmh SSW 16.0 mph25.7 kmh 29.89 in1012.2 mb 0.01 in0.3 mm 0.00 in0.0 mm 0.02 in0.5 mm
01:15 PM 49.0°F9.4°C 26.3°F-3.2°C 41% 6.0 mph S9.7 kmh S 16.0 mph25.7 kmh 29.89 in1012.2 mb 0.00 in0.0 mm 0.00 in0.0 mm 0.02 in0.5 mm
01:20 PM 49.3°F9.6°C 26.6°F-3.0°C 41% 7.0 mph S11.3 kmh S 16.0 mph25.7 kmh 29.88 in1011.9 mb 0.00 in0.0 mm 0.00 in0.0 mm 0.02 in0.5 mm
01:25 PM 49.6°F9.8°C 26.8°F-2.9°C 41% 7.0 mph S11.3 kmh S 16.0 mph25.7 kmh 29.89 in1012.2 mb 0.00 in0.0 mm 0.00 in0.0 mm 0.02 in0.5 mm
01:30 PM 49.7°F9.8°C 26.9°F-2.8°C 41% 7.0 mph S11.3 kmh S 16.0 mph25.7 kmh 29.88 in1011.9 mb 0.00 in0.0 mm 0.00 in0.0 mm 0.02 in0.5 mm
01:35 PM 50.1°F10.1°C 26.7°F-2.9°C 40% 6.0 mph S9.7 kmh S 15.0 mph24.1 kmh 29.88 in1011.9 mb 0.00 in0.0 mm 0.00 in0.0 mm 0.02 in0.5 mm
01:40 PM 50.3°F10.2°C 26.9°F-2.8°C 40% 5.0 mph S8.0 kmh S 13.0 mph20.9 kmh 29.88 in1011.9 mb 0.00 in0.0 mm 0.00 in0.0 mm 0.02 in0.5 mm
01:45 PM 50.1°F10.1°C 27.3°F-2.6°C 41% 6.0 mph S9.7 kmh S 15.0 mph24.1 kmh 29.88 in1011.9 mb 0.00 in0.0 mm 0.00 in0.0 mm 0.02 in0.5 mm
01:50 PM 50.2°F10.1°C 27.4°F-2.6°C 41% 7.0 mph S11.3 kmh S 15.0 mph24.1 kmh 29.87 in1011.5 mb 0.00 in0.0 mm 0.00 in0.0 mm 0.02 in0.5 mm
01:55 PM 50.4°F10.2°C 28.1°F-2.2°C 42% 7.0 mph SSW11.3 kmh SSW 16.0 mph25.7 kmh 29.87 in1011.5 mb 0.00 in0.0 mm 0.00 in0.0 mm 0.02 in0.5 mm
02:00 PM 50.5°F10.3°C 27.0°F-2.8°C 40% 7.0 mph SSW11.3 kmh SSW 16.0 mph25.7 kmh 29.87 in1011.5 mb 0.00 in0.0 mm 0.00 in0.0 mm 0.02 in0.5 mm
02:05 PM 50.5°F10.3°C 27.7°F-2.4°C 41% 7.0 mph SSW11.3 kmh SSW 12.0 mph19.3 kmh 29.87 in1011.5 mb 0.00 in0.0 mm 0.00 in0.0 mm 0.02 in0.5 mm
02:10 PM 50.7°F10.4°C 28.4°F-2.0°C 42% 6.0 mph SSW9.7 kmh SSW 12.0 mph19.3 kmh 29.87 in1011.5 mb 0.00 in0.0 mm 0.00 in0.0 mm 0.02 in0.5 mm
02:15 PM 50.4°F10.2°C 28.1°F-2.2°C 42% 6.0 mph S9.7 kmh S 18.0 mph29.0 kmh 29.87 in1011.5 mb 0.00 in0.0 mm 0.00 in0.0 mm 0.02 in0.5 mm
02:20 PM 50.4°F10.2°C 28.7°F-1.8°C 43% 7.0 mph S11.3 kmh S 18.0 mph29.0 kmh 29.87 in1011.5 mb 0.00 in0.0 mm 0.00 in0.0 mm 0.02 in0.5 mm
02:25 PM 50.1°F10.1°C 28.4°F-2.0°C 43% 6.0 mph SSW9.7 kmh SSW 17.0 mph27.4 kmh 29.87 in1011.5 mb 0.00 in0.0 mm 0.00 in0.0 mm 0.02 in0.5 mm
02:30 PM 50.0°F10.0°C 28.4°F-2.0°C 43% 6.0 mph SSW9.7 kmh SSW 16.0 mph25.7 kmh 29.87 in1011.5 mb 0.00 in0.0 mm 0.00 in0.0 mm 0.02 in0.5 mm
02:35 PM 49.7°F9.8°C 28.1°F-2.2°C 43% 8.0 mph SSW12.9 kmh SSW 16.0 mph25.7 kmh 29.87 in1011.5 mb 0.00 in0.0 mm 0.00 in0.0 mm 0.02 in0.5 mm
02:40 PM 49.5°F9.7°C 27.9°F-2.3°C 43% 6.0 mph SSW9.7 kmh SSW 13.0 mph20.9 kmh 29.87 in1011.5 mb 0.00 in0.0 mm 0.00 in0.0 mm 0.02 in0.5 mm
02:45 PM 49.4°F9.7°C 28.4°F-2.0°C 44% 4.0 mph SSW6.4 kmh SSW 8.0 mph12.9 kmh 29.87 in1011.5 mb 0.00 in0.0 mm 0.00 in0.0 mm 0.02 in0.5 mm
02:50 PM 49.5°F9.7°C 28.5°F-1.9°C 44% 5.0 mph SSW8.0 kmh SSW 17.0 mph27.4 kmh 29.87 in1011.5 mb 0.00 in0.0 mm 0.00 in0.0 mm 0.02 in0.5 mm
02:55 PM 49.4°F9.7°C 27.8°F-2.3°C 43% 6.0 mph SSW9.7 kmh SSW 17.0 mph27.4 kmh 29.87 in1011.5 mb 0.00 in0.0 mm 0.00 in0.0 mm 0.02 in0.5 mm
03:00 PM 49.1°F9.5°C 28.1°F-2.2°C 44% 6.0 mph SSW9.7 kmh SSW 14.0 mph22.5 kmh 29.87 in1011.5 mb 0.00 in0.0 mm 0.00 in0.0 mm 0.02 in0.5 mm
03:05 PM 49.0°F9.4°C 28.6°F-1.9°C 45% 6.0 mph SSW9.7 kmh SSW 11.0 mph17.7 kmh 29.87 in1011.5 mb 0.00 in0.0 mm 0.00 in0.0 mm 0.02 in0.5 mm
03:10 PM 48.9°F9.4°C 28.5°F-1.9°C 45% 5.0 mph S8.0 kmh S 11.0 mph17.7 kmh 29.87 in1011.5 mb 0.00 in0.0 mm 0.00 in0.0 mm 0.02 in0.5 mm
03:15 PM 49.0°F9.4°C 29.1°F-1.6°C 46% 6.0 mph SSW9.7 kmh SSW 12.0 mph19.3 kmh 29.88 in1011.9 mb 0.00 in0.0 mm 0.00 in0.0 mm 0.02 in0.5 mm
03:20 PM 49.1°F9.5°C 28.7°F-1.8°C 45% 6.0 mph SSW9.7 kmh SSW 12.0 mph19.3 kmh 29.87 in1011.5 mb 0.00 in0.0 mm 0.00 in0.0 mm 0.02 in0.5 mm
03:25 PM 49.3°F9.6°C 28.8°F-1.8°C 45% 5.0 mph SSW8.0 kmh SSW 10.0 mph16.1 kmh 29.87 in1011.5 mb 0.00 in0.0 mm 0.00 in0.0 mm 0.02 in0.5 mm
03:30 PM 49.5°F9.7°C 28.5°F-1.9°C 44% 5.0 mph SSW8.0 kmh SSW 9.0 mph14.5 kmh 29.87 in1011.5 mb 0.00 in0.0 mm 0.00 in0.0 mm 0.02 in0.5 mm
03:35 PM 49.5°F9.7°C 29.0°F-1.7°C 45% 6.0 mph SSW9.7 kmh SSW 14.0 mph22.5 kmh 29.88 in1011.9 mb 0.00 in0.0 mm 0.00 in0.0 mm 0.02 in0.5 mm
03:40 PM 49.5°F9.7°C 29.6°F-1.3°C 46% 6.0 mph SSW9.7 kmh SSW 14.0 mph22.5 kmh 29.88 in1011.9 mb 0.00 in0.0 mm 0.00 in0.0 mm 0.02 in0.5 mm
03:45 PM 49.6°F9.8°C 29.1°F-1.6°C 45% 5.0 mph SSW8.0 kmh SSW 10.0 mph16.1 kmh 29.88 in1011.9 mb 0.00 in0.0 mm 0.00 in0.0 mm 0.02 in0.5 mm
03:50 PM 49.5°F9.7°C 29.0°F-1.7°C 45% 6.0 mph S9.7 kmh S 14.0 mph22.5 kmh 29.88 in1011.9 mb 0.00 in0.0 mm 0.00 in0.0 mm 0.02 in0.5 mm
03:55 PM 49.4°F9.7°C 29.5°F-1.4°C 46% 7.0 mph SSW11.3 kmh SSW 14.0 mph22.5 kmh 29.88 in1011.9 mb 0.00 in0.0 mm 0.00 in0.0 mm 0.02 in0.5 mm
04:00 PM 49.1°F9.5°C 29.2°F-1.6°C 46% 6.0 mph SSW9.7 kmh SSW 10.0 mph16.1 kmh 29.88 in1011.9 mb 0.00 in0.0 mm 0.00 in0.0 mm 0.02 in0.5 mm
04:05 PM 48.7°F9.3°C 29.4°F-1.4°C 47% 7.0 mph SSW11.3 kmh SSW 14.0 mph22.5 kmh 29.88 in1011.9 mb 0.00 in0.0 mm 0.00 in0.0 mm 0.02 in0.5 mm
04:10 PM 48.8°F9.3°C 29.4°F-1.4°C 47% 7.0 mph SSW11.3 kmh SSW 14.0 mph22.5 kmh 29.88 in1011.9 mb 0.00 in0.0 mm 0.00 in0.0 mm 0.02 in0.5 mm
04:15 PM 48.6°F9.2°C 29.3°F-1.5°C 47% 6.0 mph SSW9.7 kmh SSW 12.0 mph19.3 kmh 29.88 in1011.9 mb 0.00 in0.0 mm 0.00 in0.0 mm 0.02 in0.5 mm
04:20 PM 48.5°F9.2°C 29.2°F-1.6°C 47% 5.0 mph SSW8.0 kmh SSW 12.0 mph19.3 kmh 29.88 in1011.9 mb 0.00 in0.0 mm 0.00 in0.0 mm 0.02 in0.5 mm
04:25 PM 48.3°F9.1°C 29.0°F-1.7°C 47% 6.0 mph SSW9.7 kmh SSW 16.0 mph25.7 kmh 29.88 in1011.9 mb 0.00 in0.0 mm 0.00 in0.0 mm 0.02 in0.5 mm
04:30 PM 48.2°F9.0°C 29.4°F-1.4°C 48% 6.0 mph SSW9.7 kmh SSW 16.0 mph25.7 kmh 29.88 in1011.9 mb 0.00 in0.0 mm 0.00 in0.0 mm 0.02 in0.5 mm
04:35 PM 47.8°F8.8°C 29.5°F-1.4°C 49% 5.0 mph SSW8.0 kmh SSW 10.0 mph16.1 kmh 29.88 in1011.9 mb 0.00 in0.0 mm 0.00 in0.0 mm 0.02 in0.5 mm
04:40 PM 47.4°F8.6°C 29.7°F-1.3°C 50% 5.0 mph SSW8.0 kmh SSW 10.0 mph16.1 kmh 29.89 in1012.2 mb 0.00 in0.0 mm 0.00 in0.0 mm 0.02 in0.5 mm
04:45 PM 46.9°F8.3°C 29.7°F-1.3°C 51% 5.0 mph SSW8.0 kmh SSW 10.0 mph16.1 kmh 29.89 in1012.2 mb 0.00 in0.0 mm 0.00 in0.0 mm 0.02 in0.5 mm
04:50 PM 46.7°F8.2°C 30.0°F-1.1°C 52% 5.0 mph SSW8.0 kmh SSW 13.0 mph20.9 kmh 29.89 in1012.2 mb 0.00 in0.0 mm 0.00 in0.0 mm 0.02 in0.5 mm
04:55 PM 46.5°F8.1°C 30.3°F-0.9°C 53% 5.0 mph SSW8.0 kmh SSW 13.0 mph20.9 kmh 29.89 in1012.2 mb 0.00 in0.0 mm 0.00 in0.0 mm 0.02 in0.5 mm
05:00 PM 46.4°F8.0°C 30.2°F-1.0°C 53% 4.0 mph SSW6.4 kmh SSW 9.0 mph14.5 kmh 29.89 in1012.2 mb 0.00 in0.0 mm 0.00 in0.0 mm 0.02 in0.5 mm
05:05 PM 46.3°F7.9°C 30.5°F-0.8°C 54% 4.0 mph SSW6.4 kmh SSW 7.0 mph11.3 kmh 29.89 in1012.2 mb 0.00 in0.0 mm 0.00 in0.0 mm 0.02 in0.5 mm
05:10 PM 46.0°F7.8°C 30.3°F-0.9°C 54% 4.0 mph SSW6.4 kmh SSW 7.0 mph11.3 kmh 29.89 in1012.2 mb 0.00 in0.0 mm 0.00 in0.0 mm 0.02 in0.5 mm
05:15 PM 46.0°F7.8°C 30.3°F-0.9°C 54% 3.0 mph SSW4.8 kmh SSW 10.0 mph16.1 kmh 29.89 in1012.2 mb 0.00 in0.0 mm 0.00 in0.0 mm 0.02 in0.5 mm
05:20 PM 45.8°F7.7°C 30.5°F-0.8°C 55% 3.0 mph SSW4.8 kmh SSW 10.0 mph16.1 kmh 29.89 in1012.2 mb 0.00 in0.0 mm 0.00 in0.0 mm 0.02 in0.5 mm
05:25 PM 45.6°F7.6°C 30.8°F-0.7°C 56% 3.0 mph SSW4.8 kmh SSW 7.0 mph11.3 kmh 29.89 in1012.2 mb 0.00 in0.0 mm 0.00 in0.0 mm 0.02 in0.5 mm
05:30 PM 44.5°F6.9°C 31.1°F-0.5°C 59% 2.0 mph SSW3.2 kmh SSW 7.0 mph11.3 kmh 29.89 in1012.2 mb 0.00 in0.0 mm 0.00 in0.0 mm 0.02 in0.5 mm
05:35 PM 42.5°F5.8°C 31.2°F-0.4°C 64% Calm Calm 2.0 mph3.2 kmh 29.89 in1012.2 mb 0.00 in0.0 mm 0.00 in0.0 mm 0.02 in0.5 mm
05:40 PM 40.5°F4.7°C 30.8°F-0.7°C 68% Calm Calm -- 29.89 in1012.2 mb 0.00 in0.0 mm 0.00 in0.0 mm 0.02 in0.5 mm
05:45 PM 38.9°F3.8°C 30.3°F-0.9°C 71% Calm Calm -- 29.89 in1012.2 mb 0.00 in0.0 mm 0.00 in0.0 mm 0.02 in0.5 mm
05:50 PM 37.9°F3.3°C 30.4°F-0.9°C 74% Calm Calm 2.0 mph3.2 kmh 29.89 in1012.2 mb 0.00 in0.0 mm 0.00 in0.0 mm 0.02 in0.5 mm
05:55 PM 37.0°F2.8°C 30.5°F-0.8°C 77% 1.0 mph SW1.6 kmh SW 3.0 mph4.8 kmh 29.89 in1012.2 mb 0.00 in0.0 mm 0.00 in0.0 mm 0.02 in0.5 mm
06:00 PM 36.5°F2.5°C 30.0°F-1.1°C 77% 1.0 mph SW1.6 kmh SW 3.0 mph4.8 kmh 29.89 in1012.2 mb 0.00 in0.0 mm 0.00 in0.0 mm 0.02 in0.5 mm
06:05 PM 36.2°F2.3°C 30.0°F-1.1°C 78% Calm Calm 1.0 mph1.6 kmh 29.89 in1012.2 mb 0.00 in0.0 mm 0.00 in0.0 mm 0.02 in0.5 mm
06:10 PM 35.9°F2.2°C 30.0°F-1.1°C 79% Calm Calm -- 29.89 in1012.2 mb 0.00 in0.0 mm 0.00 in0.0 mm 0.02 in0.5 mm
06:15 PM 35.7°F2.1°C 30.1°F-1.1°C 80% Calm Calm -- 29.89 in1012.2 mb 0.00 in0.0 mm 0.00 in0.0 mm 0.02 in0.5 mm
06:20 PM 35.4°F1.9°C 30.1°F-1.1°C 81% Calm Calm -- 29.89 in1012.2 mb 0.00 in0.0 mm 0.00 in0.0 mm 0.02 in0.5 mm
06:25 PM 35.2°F1.8°C 30.3°F-0.9°C 82% Calm Calm -- 29.90 in1012.5 mb 0.00 in0.0 mm 0.00 in0.0 mm 0.02 in0.5 mm
06:30 PM 34.9°F1.6°C 30.0°F-1.1°C 82% Calm Calm 1.0 mph1.6 kmh 29.90 in1012.5 mb 0.00 in0.0 mm 0.00 in0.0 mm 0.02 in0.5 mm
06:35 PM 34.7°F1.5°C 29.8°F-1.2°C 82% Calm Calm 1.0 mph1.6 kmh 29.91 in1012.9 mb 0.00 in0.0 mm 0.00 in0.0 mm 0.02 in0.5 mm
06:40 PM 34.6°F1.4°C 30.0°F-1.1°C 83% Calm Calm -- 29.91 in1012.9 mb 0.00 in0.0 mm 0.00 in0.0 mm 0.02 in0.5 mm
06:45 PM 34.6°F1.4°C 30.0°F-1.1°C 83% Calm Calm -- 29.92 in1013.2 mb 0.00 in0.0 mm 0.00 in0.0 mm 0.02 in0.5 mm
06:50 PM 34.4°F1.3°C 30.1°F-1.1°C 84% Calm Calm -- 29.92 in1013.2 mb 0.00 in0.0 mm 0.00 in0.0 mm 0.02 in0.5 mm
06:55 PM 34.4°F1.3°C 30.1°F-1.1°C 84% Calm Calm -- 29.92 in1013.2 mb 0.00 in0.0 mm 0.00 in0.0 mm 0.02 in0.5 mm
07:00 PM 34.3°F1.3°C 30.0°F-1.1°C 84% Calm Calm -- 29.92 in1013.2 mb 0.00 in0.0 mm 0.00 in0.0 mm 0.02 in0.5 mm
07:05 PM 34.2°F1.2°C 29.9°F-1.2°C 84% Calm Calm -- 29.92 in1013.2 mb 0.00 in0.0 mm 0.00 in0.0 mm 0.02 in0.5 mm
07:10 PM 34.1°F1.2°C 29.8°F-1.2°C 84% Calm Calm -- 29.93 in1013.5 mb 0.00 in0.0 mm 0.00 in0.0 mm 0.02 in0.5 mm
07:15 PM 34.0°F1.1°C 29.7°F-1.3°C 84% Calm Calm -- 29.93 in1013.5 mb 0.00 in0.0 mm 0.00 in0.0 mm 0.02 in0.5 mm
07:20 PM 33.9°F1.1°C 29.9°F-1.2°C 85% Calm Calm -- 29.93 in1013.5 mb 0.00 in0.0 mm 0.00 in0.0 mm 0.02 in0.5 mm
07:25 PM 33.8°F1.0°C 29.8°F-1.2°C 85% Calm Calm -- 29.93 in1013.5 mb 0.00 in0.0 mm 0.00 in0.0 mm 0.02 in0.5 mm
07:30 PM 33.8°F1.0°C 29.8°F-1.2°C 85% Calm Calm -- 29.93 in1013.5 mb 0.00 in0.0 mm 0.00 in0.0 mm 0.02 in0.5 mm
07:35 PM 33.7°F0.9°C 29.7°F-1.3°C 85% Calm Calm -- 29.93 in1013.5 mb 0.00 in0.0 mm 0.00 in0.0 mm 0.02 in0.5 mm
07:40 PM 33.6°F0.9°C 29.6°F-1.3°C 85% Calm Calm -- 29.93 in1013.5 mb 0.00 in0.0 mm 0.00 in0.0 mm 0.02 in0.5 mm
07:45 PM 33.6°F0.9°C 29.9°F-1.2°C 86% Calm Calm -- 29.93 in1013.5 mb 0.00 in0.0 mm 0.00 in0.0 mm 0.02 in0.5 mm
07:50 PM 33.5°F0.8°C 29.8°F-1.2°C 86% Calm Calm -- 29.93 in1013.5 mb 0.00 in0.0 mm 0.00 in0.0 mm 0.02 in0.5 mm
07:55 PM 33.3°F0.7°C 29.6°F-1.3°C 86% Calm Calm -- 29.93 in1013.5 mb 0.00 in0.0 mm 0.00 in0.0 mm 0.02 in0.5 mm
08:00 PM 33.3°F0.7°C 29.6°F-1.3°C 86% Calm Calm -- 29.93 in1013.5 mb 0.00 in0.0 mm 0.00 in0.0 mm 0.02 in0.5 mm
08:05 PM 33.2°F0.7°C 29.5°F-1.4°C 86% Calm Calm -- 29.93 in1013.5 mb 0.00 in0.0 mm 0.00 in0.0 mm 0.02 in0.5 mm
08:10 PM 33.1°F0.6°C 29.4°F-1.4°C 86% Calm Calm -- 29.93 in1013.5 mb 0.00 in0.0 mm 0.00 in0.0 mm 0.02 in0.5 mm
08:15 PM 33.1°F0.6°C 29.7°F-1.3°C 87% Calm Calm -- 29.93 in1013.5 mb 0.00 in0.0 mm 0.00 in0.0 mm 0.02 in0.5 mm
08:20 PM 33.0°F0.6°C 29.3°F-1.5°C 86% Calm Calm -- 29.93 in1013.5 mb 0.00 in0.0 mm 0.00 in0.0 mm 0.02 in0.5 mm
08:25 PM 32.9°F0.5°C 29.2°F-1.6°C 86% Calm Calm -- 29.93 in1013.5 mb 0.00 in0.0 mm 0.00 in0.0 mm 0.02 in0.5 mm
08:30 PM 32.9°F0.5°C 29.2°F-1.6°C 86% Calm Calm -- 29.92 in1013.2 mb 0.00 in0.0 mm 0.00 in0.0 mm 0.02 in0.5 mm
08:35 PM 32.8°F0.4°C 29.1°F-1.6°C 86% Calm Calm -- 29.92 in1013.2 mb 0.00 in0.0 mm 0.00 in0.0 mm 0.02 in0.5 mm
08:40 PM 32.8°F0.4°C 29.4°F-1.4°C 87% Calm Calm -- 29.92 in1013.2 mb 0.00 in0.0 mm 0.00 in0.0 mm 0.02 in0.5 mm
08:45 PM 32.7°F0.4°C 29.0°F-1.7°C 86% Calm Calm -- 29.92 in1013.2 mb 0.00 in0.0 mm 0.00 in0.0 mm 0.02 in0.5 mm
08:50 PM 32.6°F0.3°C 28.9°F-1.7°C 86% Calm Calm -- 29.92 in1013.2 mb 0.00 in0.0 mm 0.00 in0.0 mm 0.02 in0.5 mm
08:55 PM 32.6°F0.3°C 28.9°F-1.7°C 86% Calm Calm -- 29.92 in1013.2 mb 0.00 in0.0 mm 0.00 in0.0 mm 0.02 in0.5 mm
09:00 PM 32.5°F0.3°C 28.8°F-1.8°C 86% Calm Calm -- 29.92 in1013.2 mb 0.00 in0.0 mm 0.00 in0.0 mm 0.02 in0.5 mm
09:05 PM 32.4°F0.2°C 29.0°F-1.7°C 87% Calm Calm -- 29.93 in1013.5 mb 0.00 in0.0 mm 0.00 in0.0 mm 0.02 in0.5 mm
09:10 PM 32.4°F0.2°C 29.0°F-1.7°C 87% Calm Calm -- 29.92 in1013.2 mb 0.00 in0.0 mm 0.00 in0.0 mm 0.02 in0.5 mm
09:15 PM 32.3°F0.2°C 28.9°F-1.7°C 87% Calm Calm -- 29.93 in1013.5 mb 0.00 in0.0 mm 0.00 in0.0 mm 0.02 in0.5 mm
09:20 PM 32.2°F0.1°C 28.8°F-1.8°C 87% Calm Calm -- 29.93 in1013.5 mb 0.00 in0.0 mm 0.00 in0.0 mm 0.02 in0.5 mm
09:25 PM 32.1°F0.1°C 28.7°F-1.8°C 87% Calm Calm -- 29.93 in1013.5 mb 0.00 in0.0 mm 0.00 in0.0 mm 0.02 in0.5 mm
09:30 PM 32.0°F0.0°C 28.6°F-1.9°C 87% Calm Calm -- 29.93 in1013.5 mb 0.00 in0.0 mm 0.00 in0.0 mm 0.02 in0.5 mm
09:35 PM 31.9°F-0.1°C 28.5°F-1.9°C 87% Calm Calm -- 29.93 in1013.5 mb 0.00 in0.0 mm 0.00 in0.0 mm 0.02 in0.5 mm
09:40 PM 31.8°F-0.1°C 28.4°F-2.0°C 87% Calm Calm -- 29.93 in1013.5 mb 0.00 in0.0 mm 0.00 in0.0 mm 0.02 in0.5 mm
09:45 PM 31.7°F-0.2°C 28.3°F-2.1°C 87% Calm Calm -- 29.93 in1013.5 mb 0.00 in0.0 mm 0.00 in0.0 mm 0.02 in0.5 mm
09:50 PM 31.5°F-0.3°C 28.1°F-2.2°C 87% Calm Calm -- 29.94 in1013.9 mb 0.00 in0.0 mm 0.00 in0.0 mm 0.02 in0.5 mm
09:55 PM 31.5°F-0.3°C 28.1°F-2.2°C 87% Calm Calm -- 29.93 in1013.5 mb 0.00 in0.0 mm 0.00 in0.0 mm 0.02 in0.5 mm
10:00 PM 31.4°F-0.3°C 28.3°F-2.1°C 88% Calm Calm -- 29.93 in1013.5 mb 0.00 in0.0 mm 0.00 in0.0 mm 0.02 in0.5 mm
10:05 PM 31.4°F-0.3°C 28.3°F-2.1°C 88% Calm Calm -- 29.93 in1013.5 mb 0.00 in0.0 mm 0.00 in0.0 mm 0.02 in0.5 mm
10:10 PM 31.4°F-0.3°C 28.3°F-2.1°C 88% Calm Calm -- 29.93 in1013.5 mb 0.00 in0.0 mm 0.00 in0.0 mm 0.02 in0.5 mm
10:15 PM 31.4°F-0.3°C 28.3°F-2.1°C 88% Calm Calm -- 29.93 in1013.5 mb 0.00 in0.0 mm 0.00 in0.0 mm 0.02 in0.5 mm
10:20 PM 31.4°F-0.3°C 28.3°F-2.1°C 88% Calm Calm -- 29.93 in1013.5 mb 0.00 in0.0 mm 0.00 in0.0 mm 0.02 in0.5 mm
10:25 PM 31.3°F-0.4°C 28.2°F-2.1°C 88% Calm Calm -- 29.93 in1013.5 mb 0.00 in0.0 mm 0.00 in0.0 mm 0.02 in0.5 mm
10:30 PM 31.2°F-0.4°C 28.1°F-2.2°C 88% Calm Calm -- 29.93 in1013.5 mb 0.00 in0.0 mm 0.00 in0.0 mm 0.02 in0.5 mm
10:35 PM 31.2°F-0.4°C 28.1°F-2.2°C 88% Calm Calm -- 29.93 in1013.5 mb 0.00 in0.0 mm 0.00 in0.0 mm 0.02 in0.5 mm
10:40 PM 31.1°F-0.5°C 28.0°F-2.2°C 88% Calm Calm -- 29.93 in1013.5 mb 0.00 in0.0 mm 0.00 in0.0 mm 0.02 in0.5 mm
10:45 PM 31.0°F-0.6°C 28.1°F-2.2°C 89% Calm Calm -- 29.93 in1013.5 mb 0.00 in0.0 mm 0.00 in0.0 mm 0.02 in0.5 mm
10:50 PM 30.9°F-0.6°C 28.0°F-2.2°C 89% Calm Calm -- 29.93 in1013.5 mb 0.00 in0.0 mm 0.00 in0.0 mm 0.02 in0.5 mm
10:55 PM 30.9°F-0.6°C 28.0°F-2.2°C 89% Calm Calm -- 29.93 in1013.5 mb 0.00 in0.0 mm 0.00 in0.0 mm 0.02 in0.5 mm
11:00 PM 30.8°F-0.7°C 27.9°F-2.3°C 89% Calm Calm -- 29.93 in1013.5 mb 0.00 in0.0 mm 0.00 in0.0 mm 0.02 in0.5 mm
11:05 PM 30.8°F-0.7°C 27.9°F-2.3°C 89% Calm Calm -- 29.93 in1013.5 mb 0.00 in0.0 mm 0.00 in0.0 mm 0.02 in0.5 mm
11:10 PM 30.8°F-0.7°C 27.9°F-2.3°C 89% Calm Calm -- 29.93 in1013.5 mb 0.00 in0.0 mm 0.00 in0.0 mm 0.02 in0.5 mm
11:15 PM 30.7°F-0.7°C 27.8°F-2.3°C 89% Calm Calm -- 29.92 in1013.2 mb 0.00 in0.0 mm 0.00 in0.0 mm 0.02 in0.5 mm
11:20 PM 30.7°F-0.7°C 27.8°F-2.3°C 89% Calm Calm -- 29.92 in1013.2 mb 0.00 in0.0 mm 0.00 in0.0 mm 0.02 in0.5 mm
11:25 PM 30.7°F-0.7°C 27.8°F-2.3°C 89% Calm Calm -- 29.92 in1013.2 mb 0.00 in0.0 mm 0.00 in0.0 mm 0.02 in0.5 mm
11:30 PM 30.6°F-0.8°C 28.0°F-2.2°C 90% Calm Calm -- 29.92 in1013.2 mb 0.00 in0.0 mm 0.00 in0.0 mm 0.02 in0.5 mm
11:35 PM 30.6°F-0.8°C 28.0°F-2.2°C 90% Calm Calm -- 29.92 in1013.2 mb 0.00 in0.0 mm 0.00 in0.0 mm 0.02 in0.5 mm
11:40 PM 30.6°F-0.8°C 28.0°F-2.2°C 90% Calm Calm -- 29.92 in1013.2 mb 0.00 in0.0 mm 0.00 in0.0 mm 0.02 in0.5 mm
11:45 PM 30.6°F-0.8°C 27.7°F-2.4°C 89% Calm Calm -- 29.92 in1013.2 mb 0.00 in0.0 mm 0.00 in0.0 mm 0.02 in0.5 mm
11:50 PM 30.6°F-0.8°C 27.7°F-2.4°C 89% Calm Calm -- 29.92 in1013.2 mb 0.00 in0.0 mm 0.00 in0.0 mm 0.02 in0.5 mm
11:55 PM 30.6°F-0.8°C 28.0°F-2.2°C 90% Calm Calm -- 29.91 in1012.9 mb 0.00 in0.0 mm 0.00 in0.0 mm 0.02 in0.5 mm